createdAt,value
2019-03-13T00:01:07.748Z,1.70
2019-03-13T00:06:29.475Z,1.10
2019-03-13T00:08:58.191Z,1.97
2019-03-13T00:11:26.848Z,1.70
2019-03-13T00:13:55.642Z,1.13
2019-03-13T00:16:25.067Z,1.40
2019-03-13T00:18:53.832Z,0.83
2019-03-13T00:21:22.475Z,1.10
2019-03-13T00:23:51.025Z,1.03
2019-03-13T00:26:19.852Z,1.03
2019-03-13T00:28:50.234Z,1.17
2019-03-13T00:31:38.372Z,1.23
2019-03-13T00:34:07.072Z,1.07
2019-03-13T00:36:54.903Z,0.90
2019-03-13T00:39:23.683Z,0.93
2019-03-13T00:41:52.378Z,0.93
2019-03-13T00:44:40.305Z,1.03
2019-03-13T00:47:09.215Z,0.90
2019-03-13T00:49:57.036Z,0.50
2019-03-13T00:52:25.733Z,0.40
2019-03-13T00:54:54.383Z,0.60
2019-03-13T00:57:23.004Z,0.40
2019-03-13T01:05:45.438Z,0.40
2019-03-13T01:08:33.418Z,0.40
2019-03-13T01:11:02.110Z,0.40
2019-03-13T01:13:30.802Z,0.50
2019-03-13T01:15:59.534Z,0.50
2019-03-13T01:18:28.177Z,0.30
2019-03-13T01:20:57.404Z,0.50
2019-03-13T01:23:26.066Z,0.40
2019-03-13T01:25:54.744Z,0.40
2019-03-13T01:28:23.390Z,0.40
2019-03-13T01:31:11.296Z,0.40
2019-03-13T01:33:40.047Z,0.40
2019-03-13T01:36:08.810Z,0.40
2019-03-13T01:38:37.704Z,0.40
2019-03-13T01:41:06.699Z,0.50
2019-03-13T01:43:35.772Z,0.50
2019-03-13T01:48:53.732Z,0.40
2019-03-13T01:51:22.873Z,0.50
2019-03-13T01:56:25.826Z,0.50
2019-03-13T01:58:55.231Z,0.40
2019-03-13T02:04:19.364Z,0.57
2019-03-13T02:07:27.858Z,0.50
2019-03-13T02:09:56.509Z,0.70
2019-03-13T02:12:44.320Z,0.50
2019-03-13T02:15:52.804Z,0.50
2019-03-13T02:18:21.434Z,0.67
2019-03-13T02:21:09.320Z,0.77
2019-03-13T02:26:13.377Z,0.60
2019-03-13T02:28:42.015Z,0.73
2019-03-13T02:31:10.750Z,0.70
2019-03-13T02:33:41.073Z,0.80
2019-03-13T02:36:29.143Z,0.60
2019-03-13T02:38:57.836Z,0.60
2019-03-13T02:41:26.730Z,0.60
2019-03-13T02:44:14.585Z,0.80
2019-03-13T02:46:43.265Z,0.70
2019-03-13T02:49:31.179Z,0.60
2019-03-13T02:51:59.826Z,0.50
2019-03-13T02:54:29.142Z,0.50
2019-03-13T02:57:17.592Z,0.83
2019-03-13T02:59:46.754Z,0.60
2019-03-13T03:04:51.741Z,0.50
2019-03-13T03:07:20.656Z,0.60
2019-03-13T03:12:44.099Z,0.43
2019-03-13T03:15:32.165Z,0.70
2019-03-13T03:18:00.817Z,0.60
2019-03-13T03:20:29.523Z,0.87
2019-03-13T03:22:58.426Z,0.57
2019-03-13T03:25:28.704Z,0.80
2019-03-13T03:27:57.415Z,0.50
2019-03-13T03:30:26.300Z,0.70
2019-03-13T03:33:14.271Z,0.67
2019-03-13T03:35:43.079Z,0.50
2019-03-13T03:38:30.956Z,0.53
2019-03-13T03:40:59.680Z,0.83
2019-03-13T03:43:47.874Z,0.73
2019-03-13T03:46:16.545Z,0.73
2019-03-13T03:48:45.245Z,0.70
2019-03-13T03:54:01.506Z,0.70
2019-03-13T03:56:30.368Z,0.67
2019-03-13T03:58:59.041Z,0.70
2019-03-13T04:01:27.808Z,0.70
2019-03-13T04:03:56.586Z,0.87
2019-03-13T04:07:05.024Z,0.70
2019-03-13T04:09:33.701Z,0.60
2019-03-13T04:12:02.448Z,1.00
2019-03-13T04:14:31.091Z,0.50
2019-03-13T04:16:59.718Z,0.70
2019-03-13T04:19:28.398Z,0.90
2019-03-13T04:22:16.568Z,0.70
2019-03-13T04:24:46.912Z,0.60
2019-03-13T04:27:55.994Z,0.80
2019-03-13T04:30:25.502Z,0.50
2019-03-13T04:33:13.965Z,0.60
2019-03-13T04:38:17.023Z,0.80
2019-03-13T04:41:04.863Z,0.70
2019-03-13T04:43:52.882Z,1.03
2019-03-13T04:46:40.985Z,0.77
2019-03-13T04:49:09.756Z,0.60
2019-03-13T04:51:38.676Z,0.93
2019-03-13T04:54:07.285Z,0.80
2019-03-13T04:56:35.941Z,0.80
2019-03-13T04:59:04.644Z,1.00
2019-03-13T05:01:33.369Z,1.00
2019-03-13T05:04:01.973Z,0.90
2019-03-13T05:06:31.008Z,0.97
2019-03-13T05:09:39.451Z,0.90
2019-03-13T05:12:27.296Z,1.00
2019-03-13T05:14:55.970Z,0.80
2019-03-13T05:17:24.723Z,0.73
2019-03-13T05:19:53.512Z,0.93
2019-03-13T05:22:22.354Z,0.80
2019-03-13T05:24:51.217Z,0.90
2019-03-13T05:30:47.360Z,0.87
2019-03-13T05:33:15.995Z,0.60
2019-03-13T05:35:44.658Z,0.80
2019-03-13T05:38:13.369Z,0.87
2019-03-13T05:40:42.258Z,0.73
2019-03-13T05:43:11.069Z,0.90
2019-03-13T05:45:39.764Z,0.70
2019-03-13T05:51:16.786Z,0.63
2019-03-13T05:54:04.616Z,1.03
2019-03-13T05:56:33.315Z,0.80
2019-03-13T05:59:21.080Z,0.70
2019-03-13T06:01:49.783Z,0.90
2019-03-13T06:04:18.508Z,0.90
2019-03-13T06:06:47.228Z,0.90
2019-03-13T06:09:35.071Z,1.23
2019-03-13T06:12:04.092Z,0.87
2019-03-13T06:14:32.787Z,0.80
2019-03-13T06:17:01.357Z,0.80
2019-03-13T06:19:30.069Z,1.00
2019-03-13T06:21:58.776Z,1.00
2019-03-13T06:24:27.474Z,0.93
2019-03-13T06:27:15.351Z,1.10
2019-03-13T06:30:03.689Z,1.10
2019-03-13T06:32:32.379Z,1.00
2019-03-13T06:35:23.449Z,1.20
2019-03-13T06:37:50.580Z,0.70
2019-03-13T06:40:59.007Z,0.70
2019-03-13T06:43:27.779Z,0.80
2019-03-13T06:45:56.457Z,1.07
2019-03-13T06:48:25.094Z,0.97
2019-03-13T06:51:13.025Z,0.70
2019-03-13T06:53:41.714Z,1.17
2019-03-13T06:56:10.409Z,1.03
2019-03-13T07:01:34.059Z,1.10
2019-03-13T07:04:21.861Z,1.00
2019-03-13T07:12:24.196Z,0.70
2019-03-13T07:18:01.219Z,0.77
2019-03-13T07:28:53.243Z,0.50
2019-03-13T07:32:00.231Z,0.93
2019-03-13T07:37:37.205Z,0.80
2019-03-13T07:40:45.649Z,0.60
2019-03-13T07:43:53.825Z,0.50
2019-03-13T07:46:41.780Z,0.70
2019-03-13T07:52:05.333Z,1.00
2019-03-13T07:54:53.082Z,0.70
2019-03-13T07:57:40.898Z,0.60
2019-03-13T08:06:35.283Z,0.90
2019-03-13T08:12:18.025Z,0.83
2019-03-13T08:15:05.799Z,0.73
2019-03-13T08:17:53.625Z,0.60
2019-03-13T08:26:11.944Z,0.70
2019-03-13T08:28:59.681Z,0.70
2019-03-13T08:32:06.685Z,0.70
2019-03-13T08:34:54.440Z,0.70
2019-03-13T08:43:06.986Z,0.70
2019-03-13T08:46:13.896Z,0.63
2019-03-13T08:49:01.704Z,0.73
2019-03-13T08:51:49.508Z,0.57
2019-03-13T08:54:37.286Z,0.83
2019-03-13T08:57:25.106Z,0.60
2019-03-13T09:00:12.925Z,0.60
2019-03-13T09:03:00.779Z,0.83
2019-03-13T09:06:08.059Z,0.90
2019-03-13T09:08:55.934Z,0.53
2019-03-13T09:14:52.153Z,0.70
2019-03-13T09:17:39.916Z,0.57
2019-03-13T09:20:48.438Z,0.60
2019-03-13T09:23:55.465Z,1.20
2019-03-13T09:29:18.674Z,0.70
2019-03-13T09:32:06.584Z,0.77
2019-03-13T09:34:54.370Z,0.60
2019-03-13T09:37:42.125Z,0.70
2019-03-13T09:40:50.611Z,0.67
2019-03-13T09:43:38.439Z,0.50
2019-03-13T09:46:26.231Z,0.63
2019-03-13T09:49:14.837Z,0.80
2019-03-13T09:54:52.790Z,0.77
2019-03-13T09:57:40.619Z,0.70
2019-03-13T10:00:49.069Z,0.70
2019-03-13T10:03:36.854Z,0.50
2019-03-13T10:06:24.683Z,0.50
2019-03-13T10:09:12.365Z,0.67
2019-03-13T10:17:11.521Z,0.60
2019-03-13T10:22:48.453Z,0.70
2019-03-13T10:25:36.234Z,0.67
2019-03-13T10:31:03.203Z,0.70
2019-03-13T10:33:51.000Z,0.70
2019-03-13T10:39:17.856Z,0.70
2019-03-13T10:42:05.629Z,0.73
2019-03-13T10:44:53.455Z,1.07
2019-03-13T10:47:41.244Z,0.80
2019-03-13T10:50:49.704Z,0.80
2019-03-13T10:53:37.466Z,0.77
2019-03-13T10:59:00.825Z,0.73
2019-03-13T11:09:49.249Z,1.03
2019-03-13T11:15:46.853Z,0.90
2019-03-13T11:21:13.720Z,1.97
2019-03-13T11:24:01.565Z,0.80
2019-03-13T11:27:08.625Z,0.70
2019-03-13T11:32:45.697Z,0.90
2019-03-13T11:35:33.620Z,0.83
2019-03-13T11:38:21.394Z,0.60
2019-03-13T11:41:09.222Z,0.60
2019-03-13T11:43:57.028Z,1.10
2019-03-13T11:49:34.063Z,0.80
2019-03-13T11:54:57.199Z,1.23
2019-03-13T11:58:04.196Z,0.70
2019-03-13T12:00:51.966Z,1.00
2019-03-13T12:03:39.815Z,0.70
2019-03-13T12:06:27.596Z,0.90
2019-03-13T12:11:54.471Z,1.77
2019-03-13T12:17:18.040Z,0.73
2019-03-13T12:20:05.826Z,1.00
2019-03-13T12:22:53.672Z,0.90
2019-03-13T12:25:41.450Z,0.63
2019-03-13T12:31:04.679Z,1.20
2019-03-13T12:33:52.448Z,0.87
2019-03-13T12:36:41.991Z,0.80
2019-03-13T12:42:10.924Z,1.23
2019-03-13T12:45:17.960Z,1.07
2019-03-13T12:56:09.491Z,1.03
2019-03-13T12:58:57.266Z,1.03
2019-03-13T13:06:55.847Z,1.17
2019-03-13T13:09:43.624Z,1.10
2019-03-13T13:12:31.468Z,1.17
2019-03-13T13:18:08.472Z,0.87
2019-03-13T13:20:37.136Z,0.93
2019-03-13T13:23:05.898Z,0.63
2019-03-13T13:25:34.551Z,1.17
2019-03-13T13:28:03.247Z,1.00
2019-03-13T13:30:31.899Z,0.97
2019-03-13T13:33:19.799Z,0.80
2019-03-13T13:35:48.424Z,0.73
2019-03-13T13:38:57.212Z,0.80
2019-03-13T13:41:25.915Z,0.80
2019-03-13T13:43:54.596Z,1.33
2019-03-13T13:47:03.043Z,1.10
2019-03-13T13:49:31.751Z,1.00
2019-03-13T13:52:00.388Z,1.07
2019-03-13T13:54:29.038Z,1.30
2019-03-13T13:56:57.741Z,1.00
2019-03-13T13:59:26.439Z,0.73
2019-03-13T14:01:55.077Z,0.93
2019-03-13T14:04:23.756Z,1.20
2019-03-13T14:06:52.453Z,1.00
2019-03-13T14:09:21.162Z,0.90
2019-03-13T14:11:49.842Z,1.20
2019-03-13T14:14:18.481Z,2.20
2019-03-13T14:17:06.354Z,0.70
2019-03-13T14:19:35.006Z,0.97
2019-03-13T14:22:03.683Z,1.00
2019-03-13T14:24:32.306Z,0.80
2019-03-13T14:27:13.607Z,0.80
2019-03-13T14:29:31.370Z,0.87
2019-03-13T14:32:19.157Z,1.20
2019-03-13T14:34:47.951Z,0.90
2019-03-13T14:37:16.586Z,1.17
2019-03-13T14:40:04.470Z,0.93
2019-03-13T14:42:33.055Z,0.80
2019-03-13T14:45:01.732Z,0.87
2019-03-13T14:47:30.392Z,1.00
2019-03-13T14:49:59.152Z,1.00
2019-03-13T14:52:27.850Z,1.13
2019-03-13T14:54:56.552Z,2.00
2019-03-13T14:57:44.402Z,1.10
2019-03-13T15:00:52.816Z,1.20
2019-03-13T15:03:21.580Z,1.43
2019-03-13T15:05:50.234Z,1.03
2019-03-13T15:08:18.938Z,1.00
2019-03-13T15:11:06.772Z,1.20
2019-03-13T15:13:35.510Z,1.10
2019-03-13T15:16:23.407Z,1.00
2019-03-13T15:19:11.234Z,1.00
2019-03-13T15:21:39.814Z,0.83
2019-03-13T15:24:27.741Z,1.00
2019-03-13T15:27:15.576Z,1.03
2019-03-13T15:29:44.282Z,0.90
2019-03-13T15:32:12.933Z,1.30
2019-03-13T15:34:41.725Z,1.10
2019-03-13T15:37:10.335Z,1.20
2019-03-13T15:39:39.022Z,0.90
2019-03-13T15:42:07.732Z,1.80
2019-03-13T15:44:55.649Z,1.77
2019-03-13T15:47:24.289Z,0.90
2019-03-13T15:49:53.046Z,2.40
2019-03-13T15:52:21.690Z,1.27
2019-03-13T15:55:09.578Z,1.10
2019-03-13T15:57:38.189Z,1.00
2019-03-13T16:00:46.655Z,1.10
2019-03-13T16:03:15.352Z,1.20
2019-03-13T16:05:44.035Z,1.37
2019-03-13T16:08:12.718Z,1.20
2019-03-13T16:10:41.392Z,1.33
2019-03-13T16:13:10.098Z,1.20
2019-03-13T16:15:57.932Z,1.10
2019-03-13T16:18:26.698Z,1.20
2019-03-13T16:20:55.392Z,1.30
2019-03-13T16:23:24.099Z,1.10
2019-03-13T16:25:52.759Z,1.13
2019-03-13T16:28:21.505Z,1.20
2019-03-13T16:33:39.406Z,1.23
2019-03-13T16:36:08.171Z,1.80
2019-03-13T16:38:36.885Z,1.20
2019-03-13T16:41:24.801Z,1.30
2019-03-13T16:43:53.468Z,1.43
2019-03-13T16:46:22.149Z,1.33
2019-03-13T16:48:50.799Z,1.33
2019-03-13T16:51:19.414Z,1.20
2019-03-13T16:53:51.206Z,1.57
2019-03-13T16:56:18.408Z,1.47
2019-03-13T16:58:47.113Z,1.60
2019-03-13T17:01:15.956Z,1.37
2019-03-13T17:03:52.105Z,2.33
2019-03-13T17:06:39.999Z,1.23
2019-03-13T17:09:08.688Z,1.40
2019-03-13T17:11:37.340Z,1.23
2019-03-13T17:14:25.276Z,0.80
2019-03-13T17:16:54.049Z,1.47
2019-03-13T17:19:22.700Z,1.40
2019-03-13T17:24:39.101Z,1.50
2019-03-13T17:27:07.758Z,1.30
2019-03-13T17:29:36.409Z,1.17
2019-03-13T17:32:05.213Z,1.37
2019-03-13T17:34:33.852Z,1.10
2019-03-13T17:37:02.558Z,1.23
2019-03-13T17:39:33.736Z,1.07
2019-03-13T17:42:01.512Z,1.43
2019-03-13T17:44:49.612Z,1.00
2019-03-13T17:47:37.543Z,1.33
2019-03-13T17:50:26.988Z,0.90
2019-03-13T17:52:55.708Z,1.40
2019-03-13T17:56:04.153Z,2.20
2019-03-13T17:58:32.910Z,1.37
2019-03-13T18:01:01.626Z,1.33
2019-03-13T18:03:30.334Z,1.30
2019-03-13T18:05:58.997Z,1.27
2019-03-13T18:08:27.700Z,1.33
2019-03-13T18:10:56.407Z,1.27
2019-03-13T18:13:25.202Z,1.50
2019-03-13T18:15:53.944Z,1.17
2019-03-13T18:18:22.646Z,1.03
2019-03-13T18:21:10.667Z,2.00
2019-03-13T18:23:58.524Z,1.33
2019-03-13T18:26:27.322Z,1.17
2019-03-13T18:28:56.109Z,1.10
2019-03-13T18:31:44.321Z,1.10
2019-03-13T18:34:13.018Z,1.13
2019-03-13T18:37:21.490Z,1.03
2019-03-13T18:39:50.133Z,1.43
2019-03-13T18:42:58.682Z,1.47
2019-03-13T18:45:46.712Z,1.30
2019-03-13T18:48:34.598Z,1.47
2019-03-13T18:51:22.416Z,1.37
2019-03-13T18:53:51.068Z,1.80
2019-03-13T18:56:19.739Z,1.10
2019-03-13T18:59:07.590Z,1.10
2019-03-13T19:01:36.278Z,1.20
2019-03-13T19:04:05.139Z,1.30
2019-03-13T19:06:33.896Z,1.20
2019-03-13T19:09:02.555Z,1.63
2019-03-13T19:11:50.765Z,1.10
2019-03-13T19:17:07.284Z,1.40
2019-03-13T19:19:35.915Z,1.27
2019-03-13T19:22:04.688Z,1.00
2019-03-13T19:24:52.577Z,1.60
2019-03-13T19:27:21.670Z,1.80
2019-03-13T19:29:50.534Z,1.30
2019-03-13T19:32:19.448Z,1.70
2019-03-13T19:34:48.395Z,1.90
2019-03-13T19:37:17.153Z,2.27
2019-03-13T19:39:46.048Z,1.57
2019-03-13T19:42:17.364Z,1.43
2019-03-13T19:45:25.146Z,1.27
2019-03-13T19:47:53.829Z,1.57
2019-03-13T19:50:22.552Z,1.70
2019-03-13T19:53:31.443Z,1.50
2019-03-13T19:56:00.104Z,1.60
2019-03-13T19:58:28.883Z,1.93
2019-03-13T20:00:57.913Z,1.50
2019-03-13T20:03:26.699Z,1.63
2019-03-13T20:05:55.622Z,2.20
2019-03-13T20:08:24.530Z,1.30
2019-03-13T20:11:12.705Z,1.63
2019-03-13T20:13:41.985Z,1.47
2019-03-13T20:16:12.451Z,1.23
2019-03-13T20:18:41.337Z,1.60
2019-03-13T20:21:10.245Z,1.17
2019-03-13T20:23:39.161Z,1.20
2019-03-13T20:26:27.263Z,1.83
2019-03-13T20:29:35.936Z,1.47
2019-03-13T20:32:07.261Z,1.30
2019-03-13T20:34:36.098Z,0.90
2019-03-13T20:39:44.862Z,1.20
2019-03-13T20:42:13.757Z,1.43
2019-03-13T20:47:16.817Z,1.67
2019-03-13T20:49:48.106Z,1.13
2019-03-13T20:52:38.989Z,1.50
2019-03-13T20:55:47.696Z,1.40
2019-03-13T21:01:23.724Z,1.20
2019-03-13T21:03:53.560Z,1.40
2019-03-13T21:06:22.517Z,2.83
2019-03-13T21:08:54.251Z,1.90
2019-03-13T21:11:41.827Z,1.40
2019-03-13T21:14:12.262Z,2.00
2019-03-13T21:17:00.564Z,1.80
2019-03-13T21:19:31.168Z,1.30
2019-03-13T21:22:00.561Z,1.33
2019-03-13T21:24:29.386Z,2.17
2019-03-13T21:29:51.995Z,1.90
2019-03-13T21:32:21.212Z,1.63
2019-03-13T21:34:50.025Z,1.30
2019-03-13T21:37:18.719Z,1.40
2019-03-13T21:39:47.645Z,1.40
2019-03-13T21:42:16.561Z,1.53
2019-03-13T21:44:45.456Z,1.80
2019-03-13T21:47:14.173Z,1.60
2019-03-13T21:49:42.872Z,1.90
2019-03-13T21:52:11.673Z,2.00
2019-03-13T21:54:59.695Z,1.73
2019-03-13T21:57:47.646Z,1.50
2019-03-13T22:00:35.839Z,1.50
2019-03-13T22:03:04.489Z,1.53
2019-03-13T22:05:33.252Z,2.87
2019-03-13T22:08:01.970Z,1.70
2019-03-13T22:10:49.801Z,1.97
2019-03-13T22:13:18.483Z,1.97
2019-03-13T22:15:47.126Z,2.00
2019-03-13T22:18:15.829Z,1.83
2019-03-13T22:20:44.523Z,1.90
2019-03-13T22:23:13.202Z,2.00
2019-03-13T22:26:02.401Z,1.97
2019-03-13T22:28:31.246Z,2.23
2019-03-13T22:31:19.036Z,1.93
2019-03-13T22:34:06.916Z,1.83
2019-03-13T22:36:54.749Z,1.97
2019-03-13T22:39:23.427Z,2.80
2019-03-13T22:41:52.106Z,2.67
2019-03-13T22:44:20.853Z,2.57
2019-03-13T22:46:50.480Z,2.03
2019-03-13T22:49:19.865Z,2.70
2019-03-13T22:51:48.638Z,2.53
2019-03-13T22:57:12.056Z,2.77
2019-03-13T22:59:59.985Z,3.20
2019-03-13T23:02:28.685Z,2.97
2019-03-13T23:05:16.582Z,3.50
2019-03-13T23:08:04.502Z,3.00
2019-03-13T23:10:52.577Z,2.83
2019-03-13T23:15:55.797Z,2.60
2019-03-13T23:18:24.662Z,2.80
2019-03-13T23:20:53.267Z,2.80
2019-03-13T23:23:21.947Z,3.17
2019-03-13T23:25:50.747Z,2.90
2019-03-13T23:28:19.329Z,2.60
2019-03-13T23:31:07.269Z,3.30
2019-03-13T23:33:35.972Z,2.93
2019-03-13T23:36:23.836Z,2.70
2019-03-13T23:38:52.566Z,3.07
2019-03-13T23:41:21.244Z,2.50
2019-03-13T23:43:50.034Z,3.10
2019-03-13T23:46:18.752Z,3.43
2019-03-13T23:48:47.402Z,3.13
2019-03-13T23:51:16.113Z,3.40
2019-03-13T23:53:44.768Z,3.57
2019-03-13T23:56:13.534Z,4.10
2019-03-13T23:59:21.993Z,3.77
